createdAt,value
2018-07-06T00:00:32.986Z,15.30
2018-07-06T00:03:19.671Z,15.20
2018-07-06T00:06:06.833Z,15.30
2018-07-06T00:08:53.525Z,15.30
2018-07-06T00:11:41.520Z,15.30
2018-07-06T00:14:28.270Z,15.30
2018-07-06T00:17:15.920Z,15.30
2018-07-06T00:20:02.464Z,15.30
2018-07-06T00:22:49.810Z,15.30
2018-07-06T00:25:36.462Z,15.30
2018-07-06T00:28:23.819Z,15.30
2018-07-06T00:31:10.574Z,15.20
2018-07-06T00:33:57.840Z,15.20
2018-07-06T00:36:44.563Z,15.20
2018-07-06T00:39:32.592Z,15.20
2018-07-06T00:42:19.099Z,15.20
2018-07-06T00:45:06.290Z,15.10
2018-07-06T00:47:52.900Z,15.10
2018-07-06T00:50:39.987Z,15.20
2018-07-06T00:53:27.570Z,15.10
2018-07-06T00:56:15.357Z,15.10
2018-07-06T00:59:01.908Z,15.10
2018-07-06T01:04:14.440Z,15.10
2018-07-06T01:07:01.135Z,15.20
2018-07-06T01:09:48.220Z,15.20
2018-07-06T01:12:40.287Z,15.10
2018-07-06T01:15:33.033Z,15.20
2018-07-06T01:18:19.672Z,15.20
2018-07-06T01:21:07.135Z,15.10
2018-07-06T01:23:53.805Z,15.20
2018-07-06T01:26:41.348Z,15.20
2018-07-06T01:29:28.140Z,15.20
2018-07-06T01:32:14.744Z,15.20
2018-07-06T01:35:02.300Z,15.20
2018-07-06T01:37:48.945Z,15.20
2018-07-06T01:40:36.317Z,15.20
2018-07-06T01:43:22.987Z,15.20
2018-07-06T01:46:10.525Z,15.20
2018-07-06T01:48:56.980Z,15.20
2018-07-06T01:51:44.419Z,15.20
2018-07-06T01:54:32.165Z,15.30
2018-07-06T02:02:41.427Z,15.30
2018-07-06T02:05:28.088Z,15.30
2018-07-06T02:08:16.159Z,15.40
2018-07-06T02:11:02.623Z,15.40
2018-07-06T02:13:49.701Z,15.40
2018-07-06T02:16:36.479Z,15.30
2018-07-06T02:19:23.991Z,15.40
2018-07-06T02:22:10.544Z,15.40
2018-07-06T02:24:58.507Z,15.30
2018-07-06T02:27:45.169Z,15.30
2018-07-06T02:30:32.128Z,15.20
2018-07-06T02:33:18.699Z,15.20
2018-07-06T02:36:05.785Z,15.20
2018-07-06T02:38:52.620Z,15.30
2018-07-06T02:41:40.363Z,15.20
2018-07-06T02:44:27.052Z,15.20
2018-07-06T02:47:14.108Z,15.30
2018-07-06T02:50:00.517Z,15.20
2018-07-06T02:52:47.828Z,15.20
2018-07-06T02:55:36.162Z,15.10
2018-07-06T02:58:23.576Z,15.10
2018-07-06T03:01:10.745Z,15.10
2018-07-06T03:03:57.294Z,15.10
2018-07-06T03:06:44.761Z,15.10
2018-07-06T03:09:31.282Z,15.10
2018-07-06T03:12:18.894Z,15.10
2018-07-06T03:15:05.521Z,15.10
2018-07-06T03:17:52.793Z,15.10
2018-07-06T03:20:39.603Z,15.10
2018-07-06T03:23:26.712Z,15.10
2018-07-06T03:26:13.216Z,15.10
2018-07-06T03:29:00.618Z,15.00
2018-07-06T03:31:47.319Z,15.00
2018-07-06T03:34:35.105Z,15.00
2018-07-06T03:37:21.705Z,14.90
2018-07-06T03:40:08.963Z,14.90
2018-07-06T03:42:55.569Z,14.90
2018-07-06T03:45:42.980Z,14.90
2018-07-06T03:48:29.355Z,14.90
2018-07-06T03:51:16.411Z,14.90
2018-07-06T03:54:03.061Z,14.90
2018-07-06T03:56:51.006Z,14.90
2018-07-06T03:59:37.736Z,15.00
2018-07-06T04:05:05.409Z,15.00
2018-07-06T04:07:52.980Z,15.10
2018-07-06T04:10:39.678Z,15.10
2018-07-06T04:13:27.421Z,15.10
2018-07-06T04:16:14.150Z,15.10
2018-07-06T04:19:11.575Z,15.10
2018-07-06T04:21:58.355Z,15.10
2018-07-06T04:24:45.722Z,15.10
2018-07-06T04:27:32.294Z,15.10
2018-07-06T04:33:00.167Z,15.20
2018-07-06T04:35:46.796Z,15.20
2018-07-06T04:38:34.626Z,15.20
2018-07-06T04:41:21.324Z,15.20
2018-07-06T04:44:08.445Z,15.20
2018-07-06T04:46:55.537Z,15.30
2018-07-06T04:49:43.098Z,15.30
2018-07-06T04:52:29.667Z,15.30
2018-07-06T04:55:17.472Z,15.30
2018-07-06T04:58:05.133Z,15.40
2018-07-06T05:00:52.505Z,15.40
2018-07-06T05:03:39.285Z,15.40
2018-07-06T05:06:26.660Z,15.40
2018-07-06T05:09:13.156Z,15.40
2018-07-06T05:12:00.639Z,15.40
2018-07-06T05:14:47.225Z,15.50
2018-07-06T05:17:34.982Z,15.50
2018-07-06T05:20:21.561Z,15.50
2018-07-06T05:23:08.377Z,15.50
2018-07-06T05:25:55.779Z,15.50
2018-07-06T05:28:42.307Z,15.50
2018-07-06T05:31:29.278Z,15.50
2018-07-06T05:34:16.248Z,15.50
2018-07-06T05:37:03.921Z,15.50
2018-07-06T05:42:31.685Z,15.50
2018-07-06T05:45:18.407Z,15.40
2018-07-06T05:48:06.040Z,15.40
2018-07-06T05:50:52.612Z,15.40
2018-07-06T05:53:39.992Z,15.40
2018-07-06T05:56:26.734Z,15.40
2018-07-06T05:59:15.477Z,15.40
2018-07-06T06:02:02.130Z,15.50
2018-07-06T06:04:49.689Z,15.50
2018-07-06T06:07:25.363Z,15.50
2018-07-06T06:09:55.370Z,15.60
2018-07-06T06:12:24.872Z,15.50
2018-07-06T06:14:54.449Z,15.50
2018-07-06T06:17:24.617Z,15.50
2018-07-06T06:19:54.100Z,15.50
2018-07-06T06:22:23.577Z,15.50
2018-07-06T06:24:53.074Z,15.50
2018-07-06T06:27:25.928Z,15.60
2018-07-06T06:32:25.604Z,15.60
2018-07-06T06:34:55.267Z,15.70
2018-07-06T06:37:25.811Z,15.70
2018-07-06T06:39:55.382Z,15.70
2018-07-06T06:42:25.595Z,15.70
2018-07-06T06:44:55.197Z,15.70
2018-07-06T06:47:24.704Z,15.70
2018-07-06T06:49:54.968Z,15.70
2018-07-06T06:54:53.469Z,15.80
2018-07-06T06:57:24.133Z,15.80
2018-07-06T06:59:54.864Z,15.80
2018-07-06T07:02:25.706Z,15.90
2018-07-06T07:04:55.296Z,15.90
2018-07-06T07:07:24.893Z,15.90
2018-07-06T07:09:54.954Z,15.80
2018-07-06T07:12:24.558Z,15.80
2018-07-06T07:14:54.181Z,15.90
2018-07-06T07:17:24.202Z,15.90
2018-07-06T07:19:53.778Z,15.90
2018-07-06T07:22:23.622Z,15.90
2018-07-06T07:24:54.771Z,15.90
2018-07-06T07:27:24.699Z,15.90
2018-07-06T07:29:55.488Z,15.90
2018-07-06T07:32:25.113Z,15.90
2018-07-06T07:34:54.723Z,15.90
2018-07-06T07:37:24.972Z,15.90
2018-07-06T07:39:54.548Z,16.00
2018-07-06T07:42:24.108Z,16.00
2018-07-06T07:44:54.134Z,16.10
2018-07-06T07:47:23.717Z,16.20
2018-07-06T07:49:53.128Z,16.30
2018-07-06T07:52:34.940Z,16.20
2018-07-06T07:55:04.419Z,16.30
2018-07-06T08:00:03.835Z,16.20
2018-07-06T08:02:34.426Z,16.20
2018-07-06T08:05:03.936Z,16.20
2018-07-06T08:07:33.521Z,16.10
2018-07-06T08:10:03.971Z,16.00
2018-07-06T08:12:33.445Z,15.80
2018-07-06T08:15:03.887Z,15.80
2018-07-06T08:17:33.427Z,15.70
2018-07-06T08:20:03.544Z,15.70
2018-07-06T08:22:32.975Z,15.70
2018-07-06T08:25:02.433Z,15.70
2018-07-06T08:27:32.864Z,15.80
2018-07-06T08:30:02.350Z,15.90
2018-07-06T08:32:31.818Z,16.00
2018-07-06T08:35:13.458Z,16.00
2018-07-06T08:37:56.534Z,16.10
2018-07-06T08:40:27.731Z,16.00
2018-07-06T08:42:59.202Z,16.00
2018-07-06T08:45:30.438Z,16.10
2018-07-06T08:47:59.911Z,16.10
2018-07-06T08:50:29.495Z,16.20
2018-07-06T08:52:59.965Z,16.10
2018-07-06T08:55:29.404Z,16.10
2018-07-06T08:57:59.323Z,16.10
2018-07-06T09:00:30.255Z,16.00
2018-07-06T09:02:59.770Z,16.00
2018-07-06T09:05:29.450Z,16.20
2018-07-06T09:07:59.991Z,16.20
2018-07-06T09:10:29.437Z,16.20
2018-07-06T09:12:59.072Z,16.30
2018-07-06T09:15:29.283Z,16.40
2018-07-06T09:17:58.779Z,16.40
2018-07-06T09:20:28.244Z,16.40
2018-07-06T09:22:58.544Z,16.50
2018-07-06T09:25:28.160Z,16.60
2018-07-06T09:27:57.604Z,16.70
2018-07-06T09:30:27.742Z,16.70
2018-07-06T09:32:57.219Z,16.70
2018-07-06T09:35:26.650Z,16.80
2018-07-06T09:40:26.187Z,17.10
2018-07-06T09:42:57.128Z,17.20
2018-07-06T09:45:26.598Z,17.20
2018-07-06T09:47:56.116Z,17.00
2018-07-06T09:50:25.982Z,16.90
2018-07-06T09:52:55.458Z,17.00
2018-07-06T09:55:24.986Z,17.10
2018-07-06T09:57:56.157Z,17.10
2018-07-06T10:00:31.062Z,17.10
2018-07-06T10:03:03.712Z,17.00
2018-07-06T10:05:34.310Z,17.00
2018-07-06T10:08:06.116Z,16.90
2018-07-06T10:10:38.374Z,17.00
2018-07-06T10:13:10.501Z,17.30
2018-07-06T10:15:40.579Z,17.80
2018-07-06T10:18:11.327Z,18.40
2018-07-06T10:20:41.838Z,18.80
2018-07-06T10:23:13.625Z,19.20
2018-07-06T10:25:43.861Z,19.50
2018-07-06T10:29:19.635Z,19.80
2018-07-06T10:32:23.069Z,19.60
2018-07-06T10:34:53.637Z,19.50
2018-07-06T10:37:23.413Z,19.40
2018-07-06T10:39:54.339Z,19.10
2018-07-06T10:42:23.842Z,18.70
2018-07-06T10:44:55.343Z,18.90
2018-07-06T10:47:25.506Z,19.20
2018-07-06T10:49:57.128Z,20.40
2018-07-06T10:52:26.721Z,21.50
2018-07-06T10:54:56.355Z,22.10
2018-07-06T10:57:28.756Z,21.80
2018-07-06T10:59:58.737Z,21.60
2018-07-06T11:02:29.757Z,21.10
2018-07-06T11:05:00.334Z,20.70
2018-07-06T11:07:30.477Z,20.70
2018-07-06T11:10:00.053Z,20.80
2018-07-06T11:12:30.652Z,20.50
2018-07-06T11:17:31.565Z,19.90
2018-07-06T11:20:01.654Z,19.70
2018-07-06T11:22:32.356Z,19.40
2018-07-06T11:25:01.871Z,19.10
2018-07-06T11:27:31.464Z,18.80
2018-07-06T11:30:02.430Z,18.60
2018-07-06T11:32:32.040Z,18.30
2018-07-06T11:35:02.589Z,18.10
2018-07-06T11:37:32.085Z,17.80
2018-07-06T11:40:03.640Z,17.70
2018-07-06T11:42:33.216Z,17.60
2018-07-06T11:45:03.736Z,17.60
2018-07-06T11:47:33.188Z,17.90
2018-07-06T11:50:05.952Z,18.40
2018-07-06T11:52:35.488Z,19.00
2018-07-06T11:55:05.927Z,19.60
2018-07-06T11:57:35.644Z,20.60
2018-07-06T12:00:05.951Z,21.40
2018-07-06T12:02:37.761Z,21.50
2018-07-06T12:05:08.039Z,21.50
2018-07-06T12:07:39.150Z,21.10
2018-07-06T12:10:08.704Z,20.50
2018-07-06T12:12:40.103Z,20.00
2018-07-06T12:15:11.023Z,19.70
2018-07-06T12:17:41.207Z,19.30
2018-07-06T12:20:11.117Z,18.90
2018-07-06T12:22:42.672Z,18.50
2018-07-06T12:25:12.206Z,18.20
2018-07-06T12:27:41.773Z,18.00
2018-07-06T12:30:12.369Z,18.10
2018-07-06T12:32:43.437Z,18.00
2018-07-06T12:35:14.350Z,17.90
2018-07-06T12:37:45.696Z,17.80
2018-07-06T12:40:16.497Z,18.00
2018-07-06T12:42:46.069Z,18.60
2018-07-06T12:45:15.751Z,19.10
2018-07-06T12:47:46.376Z,19.70
2018-07-06T12:50:15.885Z,20.40
2018-07-06T12:52:45.335Z,20.80
2018-07-06T12:55:16.035Z,20.70
2018-07-06T12:57:46.439Z,20.40
2018-07-06T13:00:16.694Z,19.90
2018-07-06T13:02:48.114Z,19.50
2018-07-06T13:05:19.577Z,19.00
2018-07-06T13:07:49.166Z,18.60
2018-07-06T13:10:18.779Z,18.10
2018-07-06T13:12:49.393Z,17.60
2018-07-06T13:15:18.949Z,17.40
2018-07-06T13:20:19.771Z,17.10
2018-07-06T13:22:49.925Z,17.10
2018-07-06T13:25:21.022Z,17.10
2018-07-06T13:27:52.072Z,17.20
2018-07-06T13:30:23.108Z,17.30
2018-07-06T13:32:52.646Z,17.40
2018-07-06T13:35:22.792Z,17.50
2018-07-06T13:37:52.975Z,17.70
2018-07-06T13:40:22.790Z,18.00
2018-07-06T13:42:53.077Z,18.30
2018-07-06T13:45:22.621Z,19.00
2018-07-06T13:47:54.977Z,19.80
2018-07-06T13:50:25.345Z,20.50
2018-07-06T13:52:55.272Z,21.30
2018-07-06T13:55:25.215Z,22.10
2018-07-06T13:57:54.841Z,22.40
2018-07-06T14:00:25.960Z,22.80
2018-07-06T14:02:56.416Z,23.40
2018-07-06T14:05:27.053Z,24.50
2018-07-06T14:07:57.088Z,25.30
2018-07-06T14:10:27.352Z,25.40
2018-07-06T14:12:56.805Z,25.00
2018-07-06T14:15:26.316Z,24.10
2018-07-06T14:17:56.621Z,23.40
2018-07-06T14:20:26.405Z,22.70
2018-07-06T14:22:55.851Z,22.70
2018-07-06T14:25:26.345Z,22.50
2018-07-06T14:27:55.841Z,22.40
2018-07-06T14:30:26.880Z,22.20
2018-07-06T14:32:56.328Z,22.10
2018-07-06T14:35:25.797Z,21.80
2018-07-06T14:37:56.252Z,21.40
2018-07-06T14:40:25.656Z,20.70
2018-07-06T14:42:55.057Z,20.10
2018-07-06T14:45:25.187Z,19.60
2018-07-06T14:47:54.743Z,19.20
2018-07-06T14:50:24.173Z,18.80
2018-07-06T14:52:54.475Z,17.80
2018-07-06T14:55:23.857Z,16.60
2018-07-06T15:00:24.119Z,15.40
2018-07-06T15:02:53.658Z,15.10
2018-07-06T15:05:24.495Z,14.90
2018-07-06T15:07:53.946Z,14.80
2018-07-06T15:12:52.782Z,14.60
2018-07-06T15:15:22.230Z,14.60
2018-07-06T15:17:52.455Z,14.50
2018-07-06T15:20:23.223Z,14.50
2018-07-06T15:22:52.691Z,14.50
2018-07-06T15:25:22.278Z,14.50
2018-07-06T15:27:52.680Z,14.60
2018-07-06T15:30:22.169Z,14.60
2018-07-06T15:32:51.651Z,14.70
2018-07-06T15:35:21.057Z,14.70
2018-07-06T15:37:51.301Z,14.70
2018-07-06T15:40:20.726Z,14.70
2018-07-06T15:42:50.512Z,14.70
2018-07-06T15:45:21.088Z,14.70
2018-07-06T15:47:50.466Z,14.80
2018-07-06T15:50:19.999Z,14.80
2018-07-06T15:52:50.391Z,14.80
2018-07-06T15:55:20.204Z,14.80
2018-07-06T15:57:49.612Z,14.80
2018-07-06T16:00:20.794Z,14.80
2018-07-06T16:02:50.631Z,14.80
2018-07-06T16:05:21.168Z,14.70
2018-07-06T16:07:50.958Z,14.70
2018-07-06T16:10:20.476Z,14.60
2018-07-06T16:12:50.768Z,14.60
2018-07-06T16:15:20.263Z,14.60
2018-07-06T16:17:49.714Z,14.60
2018-07-06T16:20:22.138Z,14.60
2018-07-06T16:22:51.708Z,14.70
2018-07-06T16:25:21.617Z,14.70
2018-07-06T16:27:52.478Z,14.70
2018-07-06T16:30:23.067Z,14.80
2018-07-06T16:32:52.616Z,14.90
2018-07-06T16:35:23.146Z,15.00
2018-07-06T16:37:53.135Z,15.00
2018-07-06T16:40:25.218Z,15.10
2018-07-06T16:42:55.978Z,15.10
2018-07-06T16:45:26.492Z,15.20
2018-07-06T16:47:56.116Z,15.20
2018-07-06T16:50:27.618Z,15.30
2018-07-06T16:52:58.260Z,15.30
2018-07-06T16:55:27.800Z,15.30
2018-07-06T16:57:58.566Z,15.40
2018-07-06T17:00:28.068Z,15.40
2018-07-06T17:02:59.821Z,15.50
2018-07-06T17:05:31.920Z,15.60
2018-07-06T17:08:08.977Z,15.60
2018-07-06T17:10:42.133Z,15.60
2018-07-06T17:13:11.998Z,15.80
2018-07-06T17:15:41.503Z,15.80
2018-07-06T17:18:10.909Z,15.80
2018-07-06T17:20:41.506Z,15.80
2018-07-06T17:23:17.677Z,15.80
2018-07-06T17:25:47.258Z,16.00
2018-07-06T17:28:17.707Z,16.00
2018-07-06T17:30:47.222Z,16.10
2018-07-06T17:33:16.756Z,16.20
2018-07-06T17:35:46.247Z,16.20
2018-07-06T17:38:16.387Z,16.30
2018-07-06T17:40:46.583Z,16.20
2018-07-06T17:43:16.823Z,16.30
2018-07-06T17:45:46.660Z,16.30
2018-07-06T17:48:17.101Z,16.20
2018-07-06T17:50:46.625Z,16.10
2018-07-06T17:53:16.187Z,16.10
2018-07-06T17:55:46.752Z,16.10
2018-07-06T17:58:16.251Z,16.00
2018-07-06T18:00:45.794Z,16.00
2018-07-06T18:03:16.282Z,16.00
2018-07-06T18:05:46.615Z,16.00
2018-07-06T18:08:16.769Z,15.90
2018-07-06T18:10:46.269Z,15.90
2018-07-06T18:13:15.716Z,15.90
2018-07-06T18:15:46.180Z,15.90
2018-07-06T18:18:15.739Z,15.90
2018-07-06T18:20:45.232Z,15.90
2018-07-06T18:23:15.186Z,15.90
2018-07-06T18:25:44.595Z,15.90
2018-07-06T18:28:14.069Z,15.90
2018-07-06T18:30:54.979Z,15.90
2018-07-06T18:33:24.437Z,15.90
2018-07-06T18:35:54.510Z,15.90
2018-07-06T18:38:24.148Z,15.90
2018-07-06T18:40:53.755Z,15.80
2018-07-06T18:43:24.568Z,15.70
2018-07-06T18:45:54.052Z,15.70
2018-07-06T18:48:23.818Z,15.70
2018-07-06T18:50:54.033Z,15.70
2018-07-06T18:53:23.478Z,15.60
2018-07-06T18:55:55.238Z,15.60
2018-07-06T18:58:26.378Z,15.50
2018-07-06T19:00:56.453Z,15.40
2018-07-06T19:03:26.153Z,15.40
2018-07-06T19:05:58.708Z,15.40
2018-07-06T19:08:28.649Z,15.30
2018-07-06T19:10:58.802Z,15.20
2018-07-06T19:13:28.383Z,15.20
2018-07-06T19:15:57.834Z,15.20
2018-07-06T19:18:27.772Z,15.20
2018-07-06T19:20:57.580Z,15.20
2018-07-06T19:23:28.030Z,15.20
2018-07-06T19:25:57.579Z,15.20
2018-07-06T19:28:28.040Z,15.10
2018-07-06T19:30:57.759Z,15.20
2018-07-06T19:33:28.186Z,15.20
2018-07-06T19:35:57.692Z,15.20
2018-07-06T19:38:27.189Z,15.20
2018-07-06T19:40:57.576Z,15.20
2018-07-06T19:43:27.107Z,15.30
2018-07-06T19:45:56.585Z,15.30
2018-07-06T19:48:27.062Z,15.30
2018-07-06T19:50:56.526Z,15.30
2018-07-06T19:53:26.042Z,15.30
2018-07-06T19:55:56.510Z,15.20
2018-07-06T19:58:26.213Z,15.20
2018-07-06T20:00:56.377Z,15.20
2018-07-06T20:03:26.384Z,15.10
2018-07-06T20:05:57.502Z,15.10
2018-07-06T20:08:29.010Z,15.00
2018-07-06T20:11:03.626Z,14.90
2018-07-06T20:16:06.014Z,14.90
2018-07-06T20:18:36.124Z,14.90
2018-07-06T20:21:06.690Z,14.80
2018-07-06T20:23:36.431Z,14.80
2018-07-06T20:26:06.766Z,14.80
2018-07-06T20:28:36.259Z,14.80
2018-07-06T20:31:07.260Z,14.80
2018-07-06T20:33:36.779Z,14.80
2018-07-06T20:36:07.411Z,14.80
2018-07-06T20:38:39.442Z,14.80
2018-07-06T20:41:11.719Z,14.80
2018-07-06T20:43:44.560Z,14.70
2018-07-06T20:46:15.015Z,14.70
2018-07-06T20:48:45.551Z,14.70
2018-07-06T20:51:16.670Z,14.70
2018-07-06T20:53:46.795Z,14.70
2018-07-06T20:56:17.974Z,14.70
2018-07-06T20:58:48.050Z,14.70
2018-07-06T21:01:21.430Z,14.70
2018-07-06T21:03:52.656Z,14.70
2018-07-06T21:06:24.886Z,14.70
2018-07-06T21:08:55.137Z,14.70
2018-07-06T21:11:26.374Z,14.70
2018-07-06T21:13:56.101Z,14.70
2018-07-06T21:16:25.850Z,14.70
2018-07-06T21:18:56.841Z,14.70
2018-07-06T21:21:27.730Z,14.70
2018-07-06T21:23:58.155Z,14.70
2018-07-06T21:26:28.364Z,14.70
2018-07-06T21:28:57.935Z,14.70
2018-07-06T21:31:29.186Z,14.70
2018-07-06T21:33:58.899Z,14.70
2018-07-06T21:36:28.618Z,14.80
2018-07-06T21:38:59.043Z,14.80
2018-07-06T21:41:29.054Z,14.70
2018-07-06T21:43:59.974Z,14.70
2018-07-06T21:46:29.555Z,14.70
2018-07-06T21:48:59.283Z,14.70
2018-07-06T21:51:30.039Z,14.70
2018-07-06T21:53:59.511Z,14.70
2018-07-06T21:56:29.523Z,14.70
2018-07-06T21:58:59.854Z,14.60
2018-07-06T22:01:30.416Z,14.70
2018-07-06T22:04:00.151Z,14.70
2018-07-06T22:06:31.440Z,14.70
2018-07-06T22:09:00.957Z,14.70
2018-07-06T22:11:30.486Z,14.70
2018-07-06T22:14:01.335Z,14.70
2018-07-06T22:16:30.827Z,14.80
2018-07-06T22:21:30.428Z,14.80
2018-07-06T22:23:59.932Z,14.80
2018-07-06T22:26:29.424Z,14.90
2018-07-06T22:28:59.921Z,14.80
2018-07-06T22:31:29.515Z,14.80
2018-07-06T22:33:58.964Z,14.80
2018-07-06T22:36:29.149Z,14.80
2018-07-06T22:38:59.249Z,14.80
2018-07-06T22:41:30.630Z,14.80
2018-07-06T22:44:01.653Z,14.80
2018-07-06T22:46:31.877Z,14.90
2018-07-06T22:49:01.351Z,14.90
2018-07-06T22:51:31.818Z,14.90
2018-07-06T22:54:01.787Z,14.90
2018-07-06T22:56:32.026Z,14.90
2018-07-06T22:59:02.869Z,14.90
2018-07-06T23:01:32.758Z,14.90
2018-07-06T23:04:03.153Z,14.90
2018-07-06T23:06:33.597Z,14.90
2018-07-06T23:09:04.656Z,14.90
2018-07-06T23:11:34.268Z,14.90
2018-07-06T23:14:05.314Z,14.90
2018-07-06T23:16:34.789Z,14.90
2018-07-06T23:19:05.155Z,14.90
2018-07-06T23:21:35.612Z,14.90
2018-07-06T23:24:05.497Z,14.80
2018-07-06T23:26:36.470Z,14.80
2018-07-06T23:29:07.027Z,14.80
2018-07-06T23:31:37.366Z,14.70
2018-07-06T23:34:07.170Z,14.70
2018-07-06T23:36:37.197Z,14.70
2018-07-06T23:39:09.416Z,14.60
2018-07-06T23:41:39.217Z,14.60
2018-07-06T23:44:10.089Z,14.60
2018-07-06T23:46:40.546Z,14.50
2018-07-06T23:49:11.000Z,14.50
2018-07-06T23:51:42.872Z,14.60
2018-07-06T23:54:13.608Z,14.50
2018-07-06T23:56:43.047Z,14.50
2018-07-06T23:59:12.489Z,14.50
